createdAt,value
2022-11-20T00:02:11.797Z,-4.94
2022-11-20T00:07:13.589Z,-5.00
2022-11-20T00:12:15.364Z,-4.94
2022-11-20T00:17:17.050Z,-5.07
2022-11-20T00:22:18.603Z,-5.05
2022-11-20T00:27:20.511Z,-5.13
2022-11-20T00:32:22.183Z,-5.12
2022-11-20T00:37:23.754Z,-5.20
2022-11-20T00:42:25.359Z,-5.30
2022-11-20T00:47:27.571Z,-5.26
2022-11-20T00:52:29.238Z,-5.36
2022-11-20T00:57:30.993Z,-5.22
2022-11-20T01:02:32.771Z,-5.22
2022-11-20T01:07:34.599Z,-5.22
2022-11-20T01:12:36.469Z,-5.23
2022-11-20T01:17:38.088Z,-5.23
2022-11-20T01:22:40.329Z,-5.33
2022-11-20T01:27:42.004Z,-5.33
2022-11-20T01:32:43.532Z,-5.37
2022-11-20T01:37:45.188Z,-5.38
2022-11-20T01:43:13.464Z,-5.40
2022-11-20T01:48:15.831Z,-5.40
2022-11-20T01:53:20.011Z,-5.40
2022-11-20T01:58:24.591Z,-5.48
2022-11-20T02:03:27.282Z,-5.55
2022-11-20T02:08:29.349Z,-5.54
2022-11-20T02:13:46.398Z,-5.52
2022-11-20T02:18:48.558Z,-5.60
2022-11-20T02:24:08.823Z,-5.52
2022-11-20T02:29:10.837Z,-5.54
2022-11-20T02:34:12.594Z,-5.50
2022-11-20T02:39:14.601Z,-5.53
2022-11-20T02:44:16.351Z,-5.53
2022-11-20T02:49:18.212Z,-5.46
2022-11-20T02:54:19.946Z,-5.42
2022-11-20T02:59:21.741Z,-5.38
2022-11-20T03:04:23.703Z,-5.41
2022-11-20T03:09:25.390Z,-5.45
2022-11-20T03:14:27.104Z,-5.46
2022-11-20T03:19:28.923Z,-5.37
2022-11-20T03:24:30.442Z,-5.44
2022-11-20T03:29:32.221Z,-5.50
2022-11-20T03:34:33.895Z,-5.48
2022-11-20T03:39:35.465Z,-5.44
2022-11-20T03:44:37.141Z,-5.49
2022-11-20T03:49:38.791Z,-5.51
2022-11-20T03:54:40.489Z,-5.64
2022-11-20T03:59:42.155Z,-5.77
2022-11-20T04:04:43.671Z,-5.78
2022-11-20T04:09:45.366Z,-5.74
2022-11-20T04:14:47.228Z,-5.82
2022-11-20T04:19:51.411Z,-5.86
2022-11-20T04:24:53.109Z,-5.84
2022-11-20T04:29:55.091Z,-5.74
2022-11-20T04:34:56.769Z,-5.80
2022-11-20T04:39:58.547Z,-5.88
2022-11-20T04:45:00.206Z,-5.97
2022-11-20T04:50:01.925Z,-6.05
2022-11-20T04:55:04.179Z,-6.13
2022-11-20T05:00:06.558Z,-5.98
2022-11-20T05:05:08.763Z,-6.05
2022-11-20T05:10:10.421Z,-6.03
2022-11-20T05:15:12.065Z,-5.95
2022-11-20T05:20:13.948Z,-5.97
2022-11-20T05:25:15.728Z,-5.97
2022-11-20T05:30:17.520Z,-6.01
2022-11-20T05:35:19.181Z,-6.02
2022-11-20T05:40:20.836Z,-6.08
2022-11-20T05:45:22.533Z,-6.26
2022-11-20T05:50:24.120Z,-6.31
2022-11-20T05:55:25.805Z,-6.40
2022-11-20T06:00:27.486Z,-6.32
2022-11-20T06:05:29.289Z,-6.37
2022-11-20T06:10:30.823Z,-6.41
2022-11-20T06:15:32.543Z,-6.50
2022-11-20T06:20:39.246Z,-6.50
2022-11-20T06:25:43.992Z,-6.44
2022-11-20T06:30:46.237Z,-6.41
2022-11-20T06:35:48.193Z,-6.47
2022-11-20T06:40:49.734Z,-6.52
2022-11-20T06:45:54.929Z,-6.53
2022-11-20T06:50:57.301Z,-6.49
2022-11-20T06:56:00.531Z,-6.42
2022-11-20T07:01:04.558Z,-6.38
2022-11-20T07:06:06.999Z,-6.29
2022-11-20T07:11:09.381Z,-6.17
2022-11-20T07:16:11.208Z,-6.06
2022-11-20T07:21:12.876Z,-5.98
2022-11-20T07:26:14.583Z,-5.92
2022-11-20T07:31:19.387Z,-5.84
2022-11-20T07:36:21.368Z,-5.78
2022-11-20T07:41:23.120Z,-5.72
2022-11-20T07:46:24.771Z,-5.64
2022-11-20T07:51:27.023Z,-5.57
2022-11-20T07:56:28.722Z,-5.46
2022-11-20T08:01:30.507Z,-5.37
2022-11-20T08:06:32.220Z,-5.20
2022-11-20T08:11:52.559Z,-5.05
2022-11-20T08:16:54.351Z,-4.97
2022-11-20T08:21:56.569Z,-4.79
2022-11-20T08:27:00.115Z,-4.66
2022-11-20T08:32:01.817Z,-4.56
2022-11-20T08:37:04.116Z,-4.43
2022-11-20T08:42:09.241Z,-4.31
2022-11-20T08:47:10.948Z,-4.15
2022-11-20T08:52:12.623Z,-3.98
2022-11-20T08:57:14.265Z,-3.85
2022-11-20T09:02:16.365Z,-3.70
2022-11-20T09:07:18.112Z,-3.60
2022-11-20T09:12:19.984Z,-3.46
2022-11-20T09:17:21.697Z,-3.33
2022-11-20T09:22:23.346Z,-3.23
2022-11-20T09:27:25.118Z,-3.14
2022-11-20T09:32:26.909Z,-3.03
2022-11-20T09:37:28.766Z,-2.88
2022-11-20T09:42:36.141Z,-2.73
2022-11-20T09:48:21.186Z,-2.63
2022-11-20T09:53:36.675Z,-2.58
2022-11-20T09:58:44.050Z,-2.48
2022-11-20T10:04:07.314Z,-2.41
2022-11-20T10:09:31.974Z,-2.27
2022-11-20T10:14:57.886Z,-2.09
2022-11-20T10:20:21.353Z,-1.96
2022-11-20T10:25:34.110Z,-1.86
2022-11-20T10:30:41.712Z,-1.74
2022-11-20T10:35:46.209Z,-1.55
2022-11-20T10:40:53.513Z,-1.32
2022-11-20T10:46:10.100Z,-1.04
2022-11-20T10:51:30.100Z,-0.71
2022-11-20T10:56:53.719Z,-0.64
2022-11-20T11:01:55.368Z,-0.55
2022-11-20T11:07:20.820Z,-0.39
2022-11-20T11:12:25.544Z,-0.15
2022-11-20T11:17:30.347Z,0.10
2022-11-20T11:22:34.386Z,0.34
2022-11-20T11:27:47.139Z,0.50
2022-11-20T11:32:49.047Z,0.65
2022-11-20T11:37:51.999Z,0.51
2022-11-20T11:43:00.333Z,0.45
2022-11-20T11:48:04.267Z,0.35
2022-11-20T11:53:14.420Z,0.38
2022-11-20T11:58:34.972Z,0.40
2022-11-20T12:03:38.852Z,0.32
2022-11-20T12:08:47.936Z,0.26
2022-11-20T12:14:02.707Z,0.16
2022-11-20T12:19:09.333Z,0.26
2022-11-20T12:24:30.644Z,0.19
2022-11-20T12:30:03.341Z,0.19
2022-11-20T12:35:23.434Z,0.24
2022-11-20T12:40:31.044Z,0.36
2022-11-20T12:45:41.589Z,0.46
2022-11-20T12:51:14.467Z,0.57
2022-11-20T12:56:29.172Z,0.63
2022-11-20T13:01:53.028Z,0.62
2022-11-20T13:06:55.429Z,0.62
2022-11-20T13:12:12.149Z,0.66
2022-11-20T13:17:39.170Z,0.70
2022-11-20T13:23:00.950Z,0.62
2022-11-20T13:28:22.485Z,0.57
2022-11-20T13:33:35.473Z,0.52
2022-11-20T13:39:07.358Z,0.51
2022-11-20T13:44:16.523Z,0.50
2022-11-20T13:49:32.295Z,0.52
2022-11-20T13:54:55.763Z,0.53
2022-11-20T14:00:14.667Z,0.51
2022-11-20T14:05:22.139Z,0.51
2022-11-20T14:10:33.110Z,0.47
2022-11-20T14:15:39.251Z,0.40
2022-11-20T14:20:44.213Z,0.37
2022-11-20T14:25:46.214Z,0.29
2022-11-20T14:30:52.142Z,0.14
2022-11-20T14:35:56.234Z,-0.04
2022-11-20T14:41:20.062Z,-0.26
2022-11-20T14:46:22.079Z,-0.45
2022-11-20T14:51:31.299Z,-0.59
2022-11-20T14:56:32.935Z,-0.66
2022-11-20T15:01:35.047Z,-0.78
2022-11-20T15:06:37.230Z,-0.91
2022-11-20T15:11:38.854Z,-1.09
2022-11-20T15:16:40.685Z,-1.19
2022-11-20T15:21:42.328Z,-1.31
2022-11-20T15:26:44.613Z,-1.35
2022-11-20T15:31:46.500Z,-1.50
2022-11-20T15:36:48.159Z,-1.59
2022-11-20T15:41:49.834Z,-1.68
2022-11-20T15:46:51.702Z,-1.54
2022-11-20T15:51:54.916Z,-1.49
2022-11-20T15:56:56.540Z,-1.65
2022-11-20T16:01:58.335Z,-1.73
2022-11-20T16:07:00.155Z,-1.66
2022-11-20T16:12:01.941Z,-1.67
2022-11-20T16:17:08.552Z,-1.74
2022-11-20T16:22:12.089Z,-1.75
2022-11-20T16:27:13.778Z,-1.81
2022-11-20T16:32:15.416Z,-1.80
2022-11-20T16:37:17.060Z,-1.75
2022-11-20T16:42:18.783Z,-1.76
2022-11-20T16:47:20.435Z,-1.91
2022-11-20T16:52:26.530Z,-1.97
2022-11-20T16:57:29.795Z,-2.06
2022-11-20T17:02:33.787Z,-2.19
2022-11-20T17:07:35.494Z,-2.26
2022-11-20T17:12:37.142Z,-2.36
2022-11-20T17:17:38.787Z,-2.45
2022-11-20T17:22:42.883Z,-2.46
2022-11-20T17:27:44.562Z,-2.48
2022-11-20T17:32:49.054Z,-2.40
2022-11-20T17:37:51.803Z,-2.29
2022-11-20T17:42:53.434Z,-2.27
2022-11-20T17:47:55.136Z,-2.34
2022-11-20T17:52:56.845Z,-2.41
2022-11-20T17:58:03.128Z,-2.42
2022-11-20T18:03:04.808Z,-2.50
2022-11-20T18:08:06.579Z,-2.48
2022-11-20T18:13:08.264Z,-2.50
2022-11-20T18:18:10.124Z,-2.53
2022-11-20T18:23:11.777Z,-2.55
2022-11-20T18:28:13.461Z,-2.54
2022-11-20T18:33:15.146Z,-2.47
2022-11-20T18:38:16.780Z,-2.39
2022-11-20T18:43:39.064Z,-2.45
2022-11-20T18:48:40.835Z,-2.48
2022-11-20T18:53:47.092Z,-2.32
2022-11-20T18:58:49.532Z,-2.40
2022-11-20T19:03:51.174Z,-2.43
2022-11-20T19:08:53.339Z,-2.35
2022-11-20T19:13:55.334Z,-2.29
2022-11-20T19:19:03.217Z,-2.33
2022-11-20T19:24:05.396Z,-2.39
2022-11-20T19:29:07.346Z,-2.43
2022-11-20T19:34:09.269Z,-2.41
2022-11-20T19:39:11.571Z,-2.36
2022-11-20T19:44:15.195Z,-2.34
2022-11-20T19:49:22.853Z,-2.41
2022-11-20T19:54:25.084Z,-2.59
2022-11-20T19:59:30.620Z,-2.58
2022-11-20T20:04:32.399Z,-2.58
2022-11-20T20:09:35.016Z,-2.71
2022-11-20T20:14:36.793Z,-2.75
2022-11-20T20:19:38.496Z,-2.76
2022-11-20T20:24:40.256Z,-2.72
2022-11-20T20:29:42.014Z,-2.59
2022-11-20T20:34:43.753Z,-2.49
2022-11-20T20:39:45.626Z,-2.39
2022-11-20T20:45:05.883Z,-2.30
2022-11-20T20:50:10.589Z,-2.24
2022-11-20T20:55:12.387Z,-2.29
2022-11-20T21:00:14.663Z,-2.34
2022-11-20T21:05:16.527Z,-2.37
2022-11-20T21:10:23.504Z,-2.38
2022-11-20T21:15:25.497Z,-2.43
2022-11-20T21:20:45.446Z,-2.47
2022-11-20T21:25:47.108Z,-2.42
2022-11-20T21:30:49.041Z,-2.31
2022-11-20T21:35:50.706Z,-2.27
2022-11-20T21:40:52.441Z,-2.29
2022-11-20T21:45:56.618Z,-2.28
2022-11-20T21:51:06.967Z,-2.24
2022-11-20T21:56:10.399Z,-2.25
2022-11-20T22:01:20.874Z,-2.25
2022-11-20T22:06:23.537Z,-2.28
2022-11-20T22:11:25.172Z,-2.30
2022-11-20T22:16:27.062Z,-2.25
2022-11-20T22:21:30.193Z,-2.20
2022-11-20T22:26:39.872Z,-2.12
2022-11-20T22:31:42.568Z,-2.03
2022-11-20T22:36:44.673Z,-2.02
2022-11-20T22:41:46.333Z,-2.00
2022-11-20T22:46:47.949Z,-2.01
2022-11-20T22:51:49.591Z,-2.00
2022-11-20T22:56:51.243Z,-2.09
2022-11-20T23:01:53.110Z,-2.07
2022-11-20T23:06:54.743Z,-2.12
2022-11-20T23:11:56.360Z,-2.10
2022-11-20T23:16:58.042Z,-2.19
2022-11-20T23:21:59.686Z,-2.18
2022-11-20T23:27:01.323Z,-2.20
2022-11-20T23:32:02.937Z,-2.17
2022-11-20T23:37:04.564Z,-2.15
2022-11-20T23:42:06.235Z,-2.11
2022-11-20T23:47:07.834Z,-2.09
2022-11-20T23:52:09.514Z,-2.10
2022-11-20T23:57:11.167Z,-2.05
